createdAt,value
2023-07-25T00:02:31.161Z,18.47
2023-07-25T00:07:33.474Z,18.44
2023-07-25T00:12:39.469Z,18.44
2023-07-25T00:17:41.729Z,18.49
2023-07-25T00:22:43.888Z,18.63
2023-07-25T00:27:46.230Z,18.57
2023-07-25T00:32:48.557Z,18.58
2023-07-25T00:37:51.005Z,18.66
2023-07-25T00:42:57.239Z,18.70
2023-07-25T00:47:59.480Z,18.74
2023-07-25T00:53:03.692Z,18.78
2023-07-25T00:58:05.877Z,19.06
2023-07-25T01:03:08.380Z,19.36
2023-07-25T01:08:10.916Z,19.57
2023-07-25T01:13:13.135Z,19.62
2023-07-25T01:18:16.118Z,19.83
2023-07-25T01:23:21.087Z,20.03
2023-07-25T01:28:25.272Z,20.64
2023-07-25T01:33:27.612Z,21.41
2023-07-25T01:38:29.802Z,21.22
2023-07-25T01:43:32.141Z,20.34
2023-07-25T01:48:34.243Z,19.35
2023-07-25T01:53:36.444Z,19.21
2023-07-25T01:58:38.752Z,18.99
2023-07-25T02:03:40.921Z,18.66
2023-07-25T02:08:43.114Z,19.00
2023-07-25T02:13:45.261Z,18.56
2023-07-25T02:18:47.403Z,20.03
2023-07-25T02:23:49.763Z,20.77
2023-07-25T02:28:52.233Z,19.79
2023-07-25T02:33:55.611Z,20.72
2023-07-25T02:38:57.806Z,20.71
2023-07-25T02:44:01.053Z,20.70
2023-07-25T02:49:03.300Z,19.10
2023-07-25T02:54:05.792Z,19.88
2023-07-25T02:59:08.016Z,21.20
2023-07-25T03:04:10.250Z,21.69
2023-07-25T03:09:12.571Z,21.24
2023-07-25T03:14:14.812Z,19.66
2023-07-25T03:19:17.129Z,21.16
2023-07-25T03:24:19.305Z,21.87
2023-07-25T03:29:21.953Z,20.98
2023-07-25T03:34:24.210Z,19.31
2023-07-25T03:39:26.379Z,19.03
2023-07-25T03:44:28.525Z,19.64
2023-07-25T03:49:30.729Z,19.60
2023-07-25T03:54:32.956Z,19.42
2023-07-25T03:59:35.176Z,18.64
2023-07-25T04:04:37.434Z,19.38
2023-07-25T04:09:39.645Z,19.28
2023-07-25T04:14:42.360Z,19.33
2023-07-25T04:19:44.583Z,20.13
2023-07-25T04:24:46.788Z,19.08
2023-07-25T04:29:48.960Z,18.30
2023-07-25T04:34:51.409Z,17.99
2023-07-25T04:39:53.906Z,18.44
2023-07-25T04:44:58.720Z,18.84
2023-07-25T04:50:01.207Z,18.44
2023-07-25T04:55:03.436Z,18.42
2023-07-25T05:00:07.636Z,18.74
2023-07-25T05:05:10.184Z,18.42
2023-07-25T05:10:12.432Z,18.36
2023-07-25T05:15:14.685Z,18.41
2023-07-25T05:20:17.057Z,18.83
2023-07-25T05:25:19.281Z,19.81
2023-07-25T05:30:21.666Z,20.88
2023-07-25T05:35:24.096Z,20.07
2023-07-25T05:40:26.242Z,19.86
2023-07-25T05:45:28.404Z,20.81
2023-07-25T05:50:30.586Z,19.21
2023-07-25T05:55:32.726Z,17.76
2023-07-25T06:00:34.853Z,17.32
2023-07-25T06:05:37.008Z,17.71
2023-07-25T06:10:40.841Z,17.48
2023-07-25T06:15:43.043Z,19.11
2023-07-25T06:20:48.298Z,19.23
2023-07-25T06:25:50.490Z,19.79
2023-07-25T06:30:53.218Z,19.41
2023-07-25T06:35:55.734Z,18.55
2023-07-25T06:40:58.386Z,19.05
2023-07-25T06:46:01.487Z,20.42
2023-07-25T06:51:04.133Z,20.77
2023-07-25T06:56:06.302Z,20.77
2023-07-25T07:01:08.487Z,19.71
2023-07-25T07:06:10.685Z,18.58
2023-07-25T07:11:12.821Z,18.41
2023-07-25T07:16:15.793Z,18.17
2023-07-25T07:21:17.943Z,18.38
2023-07-25T07:26:20.210Z,18.16
2023-07-25T07:31:24.870Z,18.45
2023-07-25T07:36:27.202Z,17.84
2023-07-25T07:41:29.566Z,17.86
2023-07-25T07:46:34.233Z,17.82
2023-07-25T07:51:36.443Z,18.54
2023-07-25T07:56:42.040Z,18.84
2023-07-25T08:01:50.070Z,19.27
2023-07-25T08:06:57.053Z,19.04
2023-07-25T08:12:00.024Z,19.10
2023-07-25T08:17:02.305Z,19.10
2023-07-25T08:22:04.904Z,18.96
2023-07-25T08:27:08.686Z,18.95
2023-07-25T08:32:14.603Z,18.95
2023-07-25T08:37:27.217Z,19.15
2023-07-25T08:42:38.820Z,19.68
2023-07-25T08:47:47.262Z,19.65
2023-07-25T08:52:58.175Z,19.72
2023-07-25T08:58:01.651Z,19.91
2023-07-25T09:03:09.774Z,20.11
2023-07-25T09:08:28.309Z,20.03
2023-07-25T09:13:32.338Z,19.60
2023-07-25T09:18:39.366Z,19.33
2023-07-25T09:23:54.992Z,19.36
2023-07-25T09:29:01.499Z,20.88
2023-07-25T09:34:22.240Z,21.77
2023-07-25T09:39:24.725Z,21.44
2023-07-25T09:50:07.150Z,22.01
2023-07-25T09:55:14.472Z,22.83
2023-07-25T10:00:21.382Z,23.53
2023-07-25T10:05:25.417Z,22.09
2023-07-25T10:10:32.690Z,22.25
2023-07-25T10:15:35.745Z,23.87
2023-07-25T10:20:38.685Z,23.30
2023-07-25T10:25:40.913Z,24.54
2023-07-25T10:30:47.305Z,24.77
2023-07-25T10:35:57.712Z,23.69
2023-07-25T10:41:20.326Z,22.26
2023-07-25T10:46:35.759Z,21.79
2023-07-25T10:51:57.507Z,22.04
2023-07-25T10:57:24.226Z,20.89
2023-07-25T11:02:41.633Z,20.06
2023-07-25T11:07:56.300Z,20.32
2023-07-25T11:13:06.948Z,22.40
2023-07-25T11:18:12.133Z,25.16
2023-07-25T11:23:15.070Z,24.20
2023-07-25T11:28:18.060Z,24.93
2023-07-25T11:33:21.817Z,26.61
2023-07-25T11:38:26.265Z,27.16
2023-07-25T11:43:31.771Z,24.55
2023-07-25T11:48:34.304Z,24.29
2023-07-25T11:53:39.555Z,23.84
2023-07-25T11:58:51.260Z,24.34
2023-07-25T12:03:54.137Z,24.14
2023-07-25T12:09:01.934Z,23.81
2023-07-25T12:14:05.648Z,23.90
2023-07-25T12:19:24.587Z,23.84
2023-07-25T12:24:26.943Z,23.69
2023-07-25T12:29:29.287Z,22.13
2023-07-25T12:34:31.573Z,22.08
2023-07-25T12:39:33.728Z,22.67
2023-07-25T12:44:35.938Z,23.54
2023-07-25T12:49:39.473Z,27.05
2023-07-25T12:54:44.096Z,28.66
2023-07-25T12:59:46.273Z,28.79
2023-07-25T13:05:01.218Z,27.53
2023-07-25T13:10:03.660Z,26.00
2023-07-25T13:15:07.354Z,25.32
2023-07-25T13:20:10.252Z,25.48
2023-07-25T13:25:22.086Z,24.51
2023-07-25T13:30:25.993Z,24.31
2023-07-25T13:35:28.254Z,24.29
2023-07-25T13:40:30.627Z,24.30
2023-07-25T13:45:46.037Z,24.06
2023-07-25T13:50:55.335Z,24.18
2023-07-25T13:56:02.084Z,24.06
2023-07-25T14:01:09.224Z,24.06
2023-07-25T14:06:13.549Z,24.03
2023-07-25T14:11:22.027Z,23.98
2023-07-25T14:16:24.599Z,23.80
2023-07-25T14:21:37.043Z,23.80
2023-07-25T14:26:39.458Z,22.94
2023-07-25T14:31:52.134Z,23.58
2023-07-25T14:36:56.851Z,24.00
2023-07-25T14:42:02.094Z,23.09
2023-07-25T14:47:07.013Z,23.76
2023-07-25T14:52:11.912Z,24.96
2023-07-25T14:57:21.927Z,25.11
2023-07-25T15:02:27.397Z,24.74
2023-07-25T15:07:33.010Z,23.51
2023-07-25T15:12:35.519Z,23.98
2023-07-25T15:17:37.972Z,24.11
2023-07-25T15:22:42.731Z,24.05
2023-07-25T15:27:49.394Z,23.82
2023-07-25T15:32:54.090Z,23.92
2023-07-25T15:37:58.846Z,23.53
2023-07-25T15:43:09.643Z,22.34
2023-07-25T15:48:24.578Z,21.65
2023-07-25T15:53:29.170Z,19.41
2023-07-25T15:58:34.014Z,19.12
2023-07-25T16:03:44.848Z,19.29
2023-07-25T16:08:50.199Z,18.98
2023-07-25T16:13:56.128Z,18.72
2023-07-25T16:18:58.339Z,18.54
2023-07-25T16:24:00.578Z,18.53
2023-07-25T16:29:02.819Z,18.55
2023-07-25T16:39:44.750Z,18.82
2023-07-25T16:45:20.365Z,18.76
2023-07-25T16:50:25.729Z,19.10
2023-07-25T16:55:31.267Z,19.82
2023-07-25T17:00:58.768Z,20.66
2023-07-25T17:06:06.780Z,22.08
2023-07-25T17:11:12.815Z,22.66
2023-07-25T17:16:20.789Z,22.84
2023-07-25T17:21:34.114Z,22.83
2023-07-25T17:26:42.026Z,23.01
2023-07-25T17:31:46.571Z,22.93
2023-07-25T17:36:48.730Z,23.16
2023-07-25T17:41:51.032Z,23.06
2023-07-25T17:46:53.384Z,22.82
2023-07-25T17:51:55.845Z,22.90
2023-07-25T17:57:03.298Z,23.24
2023-07-25T18:02:07.202Z,23.36
2023-07-25T18:07:09.424Z,23.22
2023-07-25T18:12:16.634Z,22.61
2023-07-25T18:17:18.861Z,22.96
2023-07-25T18:22:22.455Z,22.74
2023-07-25T18:27:40.138Z,22.91
2023-07-25T18:32:43.449Z,22.52
2023-07-25T18:37:53.430Z,22.81
2023-07-25T18:42:56.062Z,22.52
2023-07-25T18:48:00.729Z,20.57
2023-07-25T18:53:02.922Z,20.49
2023-07-25T18:58:07.501Z,20.06
2023-07-25T19:03:09.769Z,20.95
2023-07-25T19:08:11.955Z,19.36
2023-07-25T19:13:14.108Z,18.69
2023-07-25T19:18:16.862Z,19.38
2023-07-25T19:23:26.462Z,20.07
2023-07-25T19:28:30.364Z,19.73
2023-07-25T19:33:34.348Z,19.28
2023-07-25T19:38:40.731Z,18.38
2023-07-25T19:43:48.846Z,17.19
2023-07-25T19:48:53.276Z,17.87
2023-07-25T19:53:56.062Z,18.40
2023-07-25T19:59:06.298Z,18.24
2023-07-25T20:04:11.667Z,17.25
2023-07-25T20:09:14.224Z,16.78
2023-07-25T20:14:18.685Z,16.35
2023-07-25T20:19:27.382Z,17.73
2023-07-25T20:24:35.654Z,17.21
2023-07-25T20:29:37.870Z,16.69
2023-07-25T20:34:46.320Z,17.45
2023-07-25T20:39:48.576Z,17.44
2023-07-25T20:44:53.254Z,17.21
2023-07-25T20:50:00.161Z,17.26
2023-07-25T20:55:05.050Z,16.84
2023-07-25T21:00:11.014Z,16.19
2023-07-25T21:05:13.450Z,16.79
2023-07-25T21:10:15.646Z,15.90
2023-07-25T21:15:23.150Z,15.54
2023-07-25T21:20:29.112Z,15.47
2023-07-25T21:31:12.359Z,15.72
2023-07-25T21:36:15.067Z,15.78
2023-07-25T21:41:17.388Z,16.44
2023-07-25T21:46:19.707Z,16.17
2023-07-25T21:51:21.896Z,16.37
2023-07-25T21:56:24.258Z,15.95
2023-07-25T22:01:26.722Z,15.95
2023-07-25T22:06:30.012Z,16.14
2023-07-25T22:11:32.655Z,17.08
2023-07-25T22:16:35.333Z,18.03
2023-07-25T22:21:37.945Z,17.25
2023-07-25T22:26:40.104Z,17.12
2023-07-25T22:31:42.299Z,16.61
2023-07-25T22:36:44.549Z,16.19
2023-07-25T22:41:46.712Z,16.00
2023-07-25T22:46:48.870Z,17.04
2023-07-25T22:51:51.070Z,17.51
2023-07-25T22:56:53.479Z,16.85
2023-07-25T23:01:56.048Z,15.91
2023-07-25T23:06:58.340Z,15.86
2023-07-25T23:12:00.699Z,15.46
2023-07-25T23:17:02.969Z,15.28
2023-07-25T23:22:05.237Z,15.02
2023-07-25T23:27:08.268Z,15.03
2023-07-25T23:32:12.030Z,15.05
2023-07-25T23:37:14.482Z,15.31
2023-07-25T23:42:16.798Z,15.27
2023-07-25T23:47:18.983Z,15.74
2023-07-25T23:52:21.151Z,15.65
2023-07-25T23:57:23.447Z,15.91
